Guanacache, Argentina
Current Conditions -  °F | °C
As of 10:00 AM on Thursday 30 Oct 2014 (Local Time) from SAME Reporting Station
Clear Clear  
Wind Chill: 21°   Ceiling: Unl
Heat Index: 21°   Visibility: 6mi
Dew Point:   Wind: 6mph
Humidity: 40%   Direction: 160°SSE
Pressure: 29.83"   Gusts: NA
Location:  32°S, 68.61°W
Report Text: SAME 301300Z 16005KT CAVOK 21/07 Q1010
Loading
Personal Weather Stations






























Interactive Weather Map
Tropical Storm Tracking
New forecast layout! Learn more

10-Day Weather Forecast

Advertisements
Track Severe Weather on mobile